sensor_id;sensor_type;location;lat;lon;timestamp;noise_LAeq;noise_LA_min;noise_LA_max;noise_LA01;noise_LA95
18377;Laerm;9315;52.624;13.544;2023-07-29T00:00:48;56.10;38.91;70.15;;
18377;Laerm;9315;52.624;13.544;2023-07-29T00:03:16;56.15;40.15;74.89;;
18377;Laerm;9315;52.624;13.544;2023-07-29T00:05:48;58.95;40.44;79.16;;
18377;Laerm;9315;52.624;13.544;2023-07-29T00:08:16;62.34;38.47;82.01;;
18377;Laerm;9315;52.624;13.544;2023-07-29T00:10:43;58.67;38.84;79.24;;
18377;Laerm;9315;52.624;13.544;2023-07-29T00:13:14;56.97;34.89;74.95;;
18377;Laerm;9315;52.624;13.544;2023-07-29T00:15:41;56.71;38.77;70.90;;
18377;Laerm;9315;52.624;13.544;2023-07-29T00:18:09;60.37;36.96;74.29;;
18377;Laerm;9315;52.624;13.544;2023-07-29T00:20:37;57.51;36.19;73.65;;
18377;Laerm;9315;52.624;13.544;2023-07-29T00:23:12;60.52;36.38;78.22;;
18377;Laerm;9315;52.624;13.544;2023-07-29T00:25:42;48.65;35.69;70.35;;
18377;Laerm;9315;52.624;13.544;2023-07-29T00:28:12;41.85;34.17;49.11;;
18377;Laerm;9315;52.624;13.544;2023-07-29T00:30:40;59.49;37.86;74.95;;
18377;Laerm;9315;52.624;13.544;2023-07-29T00:33:10;51.54;34.86;69.19;;
18377;Laerm;9315;52.624;13.544;2023-07-29T00:35:41;38.45;33.54;50.88;;
18377;Laerm;9315;52.624;13.544;2023-07-29T00:38:09;40.11;34.54;47.82;;
18377;Laerm;9315;52.624;13.544;2023-07-29T00:40:39;58.15;36.41;77.11;;
18377;Laerm;9315;52.624;13.544;2023-07-29T00:43:07;40.34;35.30;48.36;;
18377;Laerm;9315;52.624;13.544;2023-07-29T00:45:35;60.05;37.46;74.82;;
18377;Laerm;9315;52.624;13.544;2023-07-29T00:48:04;55.28;37.72;70.07;;
18377;Laerm;9315;52.624;13.544;2023-07-29T00:50:32;57.85;39.12;75.11;;
18377;Laerm;9315;52.624;13.544;2023-07-29T00:53:00;56.97;37.52;75.93;;
18377;Laerm;9315;52.624;13.544;2023-07-29T00:55:29;41.88;35.27;47.89;;
18377;Laerm;9315;52.624;13.544;2023-07-29T00:57:57;39.42;35.10;44.92;;
18377;Laerm;9315;52.624;13.544;2023-07-29T01:00:24;57.01;37.82;74.88;;
18377;Laerm;9315;52.624;13.544;2023-07-29T01:02:58;51.71;34.05;68.34;;
18377;Laerm;9315;52.624;13.544;2023-07-29T01:05:38;55.34;35.76;69.48;;
18377;Laerm;9315;52.624;13.544;2023-07-29T01:08:36;44.69;37.75;63.09;;
18377;Laerm;9315;52.624;13.544;2023-07-29T01:17:47;44.01;39.15;50.99;;
18377;Laerm;9315;52.624;13.544;2023-07-29T01:20:16;43.31;38.04;50.67;;
18377;Laerm;9315;52.624;13.544;2023-07-29T01:22:49;60.75;39.44;77.79;;
18377;Laerm;9315;52.624;13.544;2023-07-29T01:25:17;55.99;38.12;74.03;;
18377;Laerm;9315;52.624;13.544;2023-07-29T01:27:49;55.88;34.96;72.70;;
18377;Laerm;9315;52.624;13.544;2023-07-29T01:30:20;56.85;35.38;71.99;;
18377;Laerm;9315;52.624;13.544;2023-07-29T01:33:16;54.13;37.95;70.74;;
18377;Laerm;9315;52.624;13.544;2023-07-29T01:36:07;61.99;37.92;85.19;;
18377;Laerm;9315;52.624;13.544;2023-07-29T01:38:40;59.99;39.43;74.08;;
18377;Laerm;9315;52.624;13.544;2023-07-29T01:41:09;43.48;36.21;52.47;;
18377;Laerm;9315;52.624;13.544;2023-07-29T01:43:37;54.37;34.21;70.44;;
18377;Laerm;9315;52.624;13.544;2023-07-29T01:46:17;58.11;39.54;73.12;;
18377;Laerm;9315;52.624;13.544;2023-07-29T01:48:50;56.79;37.44;71.97;;
18377;Laerm;9315;52.624;13.544;2023-07-29T01:51:17;50.41;37.42;69.49;;
18377;Laerm;9315;52.624;13.544;2023-07-29T01:53:45;56.38;38.23;70.33;;
18377;Laerm;9315;52.624;13.544;2023-07-29T01:56:12;51.77;39.88;68.97;;
18377;Laerm;9315;52.624;13.544;2023-07-29T01:58:40;53.93;37.80;72.33;;
18377;Laerm;9315;52.624;13.544;2023-07-29T02:01:07;44.86;38.94;52.38;;
18377;Laerm;9315;52.624;13.544;2023-07-29T02:03:35;59.56;39.70;76.62;;
18377;Laerm;9315;52.624;13.544;2023-07-29T02:06:02;59.52;39.68;78.14;;
18377;Laerm;9315;52.624;13.544;2023-07-29T02:08:30;50.32;36.82;70.83;;
18377;Laerm;9315;52.624;13.544;2023-07-29T02:10:57;59.04;38.99;76.43;;
18377;Laerm;9315;52.624;13.544;2023-07-29T02:13:25;53.84;40.00;69.66;;
18377;Laerm;9315;52.624;13.544;2023-07-29T02:15:52;57.77;40.67;74.73;;
18377;Laerm;9315;52.624;13.544;2023-07-29T02:18:19;59.49;38.85;75.24;;
18377;Laerm;9315;52.624;13.544;2023-07-29T02:20:46;61.59;37.82;76.57;;
18377;Laerm;9315;52.624;13.544;2023-07-29T02:23:16;54.56;39.03;71.64;;
18377;Laerm;9315;52.624;13.544;2023-07-29T02:25:44;50.85;37.41;69.09;;
18377;Laerm;9315;52.624;13.544;2023-07-29T02:28:12;43.36;36.79;51.60;;
18377;Laerm;9315;52.624;13.544;2023-07-29T02:30:41;61.37;40.24;72.48;;
18377;Laerm;9315;52.624;13.544;2023-07-29T02:33:11;59.07;36.26;72.77;;
18377;Laerm;9315;52.624;13.544;2023-07-29T02:35:38;55.25;41.21;71.64;;
18377;Laerm;9315;52.624;13.544;2023-07-29T02:38:06;58.94;38.76;73.65;;
18377;Laerm;9315;52.624;13.544;2023-07-29T02:40:33;57.45;41.86;73.25;;
18377;Laerm;9315;52.624;13.544;2023-07-29T02:43:00;58.78;37.42;77.01;;
18377;Laerm;9315;52.624;13.544;2023-07-29T02:45:27;54.40;42.40;71.02;;
18377;Laerm;9315;52.624;13.544;2023-07-29T02:47:55;56.53;40.49;72.12;;
18377;Laerm;9315;52.624;13.544;2023-07-29T02:50:23;56.24;39.69;72.26;;
18377;Laerm;9315;52.624;13.544;2023-07-29T02:52:50;57.38;40.24;77.41;;
18377;Laerm;9315;52.624;13.544;2023-07-29T02:55:19;63.32;43.89;77.43;;
18377;Laerm;9315;52.624;13.544;2023-07-29T02:57:46;58.90;40.34;75.34;;
18377;Laerm;9315;52.624;13.544;2023-07-29T03:00:13;57.58;35.89;75.69;;
18377;Laerm;9315;52.624;13.544;2023-07-29T03:02:42;59.92;39.94;76.75;;
18377;Laerm;9315;52.624;13.544;2023-07-29T03:05:09;61.99;39.82;75.17;;
18377;Laerm;9315;52.624;13.544;2023-07-29T03:07:37;61.27;42.24;79.54;;
18377;Laerm;9315;52.624;13.544;2023-07-29T03:10:05;61.94;42.46;75.98;;
18377;Laerm;9315;52.624;13.544;2023-07-29T03:12:33;57.08;43.34;69.82;;
18377;Laerm;9315;52.624;13.544;2023-07-29T03:15:00;62.60;42.88;76.18;;
18377;Laerm;9315;52.624;13.544;2023-07-29T03:17:28;62.70;40.85;74.54;;
18377;Laerm;9315;52.624;13.544;2023-07-29T03:19:55;63.55;41.14;75.25;;
18377;Laerm;9315;52.624;13.544;2023-07-29T03:22:22;64.13;43.81;76.18;;
18377;Laerm;9315;52.624;13.544;2023-07-29T03:24:49;61.55;44.16;74.47;;
18377;Laerm;9315;52.624;13.544;2023-07-29T03:27:16;61.04;43.21;75.52;;
18377;Laerm;9315;52.624;13.544;2023-07-29T03:29:43;63.64;42.64;75.48;;
18377;Laerm;9315;52.624;13.544;2023-07-29T03:32:11;58.37;43.28;74.32;;
18377;Laerm;9315;52.624;13.544;2023-07-29T03:34:39;63.21;45.37;77.00;;
18377;Laerm;9315;52.624;13.544;2023-07-29T03:37:07;63.36;45.96;75.48;;
18377;Laerm;9315;52.624;13.544;2023-07-29T03:39:34;64.57;44.75;75.74;;
18377;Laerm;9315;52.624;13.544;2023-07-29T03:42:01;63.49;45.93;76.16;;
18377;Laerm;9315;52.624;13.544;2023-07-29T03:44:28;64.75;45.29;79.43;;
18377;Laerm;9315;52.624;13.544;2023-07-29T03:46:55;64.04;46.06;77.73;;
18377;Laerm;9315;52.624;13.544;2023-07-29T03:49:23;60.58;44.49;73.77;;
18377;Laerm;9315;52.624;13.544;2023-07-29T03:51:50;61.13;45.96;75.90;;
18377;Laerm;9315;52.624;13.544;2023-07-29T03:54:17;61.23;46.32;76.17;;
18377;Laerm;9315;52.624;13.544;2023-07-29T03:56:44;60.13;43.89;74.24;;
18377;Laerm;9315;52.624;13.544;2023-07-29T03:59:11;59.89;45.55;74.27;;
18377;Laerm;9315;52.624;13.544;2023-07-29T04:01:38;63.64;45.37;80.51;;
18377;Laerm;9315;52.624;13.544;2023-07-29T04:04:06;64.37;45.80;77.25;;
18377;Laerm;9315;52.624;13.544;2023-07-29T04:06:33;58.68;43.52;73.50;;
18377;Laerm;9315;52.624;13.544;2023-07-29T04:09:01;58.00;42.44;73.24;;
18377;Laerm;9315;52.624;13.544;2023-07-29T04:11:28;64.83;44.30;76.32;;
18377;Laerm;9315;52.624;13.544;2023-07-29T04:13:55;64.42;44.67;75.53;;
18377;Laerm;9315;52.624;13.544;2023-07-29T04:16:23;64.77;45.20;80.98;;
18377;Laerm;9315;52.624;13.544;2023-07-29T04:18:50;61.90;44.52;77.23;;
18377;Laerm;9315;52.624;13.544;2023-07-29T04:21:17;65.22;44.71;77.69;;
18377;Laerm;9315;52.624;13.544;2023-07-29T04:23:44;63.39;43.15;75.08;;
18377;Laerm;9315;52.624;13.544;2023-07-29T04:26:11;63.84;42.43;77.72;;
18377;Laerm;9315;52.624;13.544;2023-07-29T04:28:38;66.34;45.77;78.47;;
18377;Laerm;9315;52.624;13.544;2023-07-29T04:31:06;66.79;45.70;82.12;;
18377;Laerm;9315;52.624;13.544;2023-07-29T04:33:33;64.51;42.86;78.96;;
18377;Laerm;9315;52.624;13.544;2023-07-29T04:36:03;62.68;42.34;77.16;;
18377;Laerm;9315;52.624;13.544;2023-07-29T04:38:33;62.27;42.54;74.70;;
18377;Laerm;9315;52.624;13.544;2023-07-29T04:41:01;58.97;43.21;74.33;;
18377;Laerm;9315;52.624;13.544;2023-07-29T04:43:34;59.36;43.09;73.55;;
18377;Laerm;9315;52.624;13.544;2023-07-29T04:46:01;62.84;42.76;76.73;;
18377;Laerm;9315;52.624;13.544;2023-07-29T04:48:31;64.81;45.51;76.88;;
18377;Laerm;9315;52.624;13.544;2023-07-29T04:50:58;64.98;44.81;75.86;;
18377;Laerm;9315;52.624;13.544;2023-07-29T04:53:25;65.10;42.58;78.22;;
18377;Laerm;9315;52.624;13.544;2023-07-29T04:55:52;59.81;41.66;75.29;;
18377;Laerm;9315;52.624;13.544;2023-07-29T04:58:19;64.29;42.54;79.68;;
18377;Laerm;9315;52.624;13.544;2023-07-29T05:00:47;63.30;44.32;76.72;;
18377;Laerm;9315;52.624;13.544;2023-07-29T05:03:14;55.68;42.04;73.11;;
18377;Laerm;9315;52.624;13.544;2023-07-29T05:05:41;65.24;43.02;78.50;;
18377;Laerm;9315;52.624;13.544;2023-07-29T05:08:09;67.01;40.39;83.18;;
18377;Laerm;9315;52.624;13.544;2023-07-29T05:10:36;59.44;39.05;74.04;;
18377;Laerm;9315;52.624;13.544;2023-07-29T05:13:03;63.44;38.38;77.18;;
18377;Laerm;9315;52.624;13.544;2023-07-29T05:15:31;64.98;40.29;76.42;;
18377;Laerm;9315;52.624;13.544;2023-07-29T05:17:58;62.87;38.34;77.98;;
18377;Laerm;9315;52.624;13.544;2023-07-29T05:20:25;64.14;38.11;75.48;;
18377;Laerm;9315;52.624;13.544;2023-07-29T05:22:52;65.29;38.63;75.55;;
18377;Laerm;9315;52.624;13.544;2023-07-29T05:25:20;66.38;39.07;78.88;;
18377;Laerm;9315;52.624;13.544;2023-07-29T05:27:47;63.14;36.23;76.10;;
18377;Laerm;9315;52.624;13.544;2023-07-29T05:30:14;64.94;37.82;75.61;;
18377;Laerm;9315;52.624;13.544;2023-07-29T05:32:41;64.97;39.19;79.80;;
18377;Laerm;9315;52.624;13.544;2023-07-29T05:35:09;67.40;40.55;83.14;;
18377;Laerm;9315;52.624;13.544;2023-07-29T05:37:40;65.52;40.93;76.00;;
18377;Laerm;9315;52.624;13.544;2023-07-29T05:40:08;66.68;41.19;79.14;;
18377;Laerm;9315;52.624;13.544;2023-07-29T05:42:35;64.62;37.25;78.26;;
18377;Laerm;9315;52.624;13.544;2023-07-29T05:45:03;65.63;39.24;79.91;;
18377;Laerm;9315;52.624;13.544;2023-07-29T05:47:30;65.86;40.65;77.90;;
18377;Laerm;9315;52.624;13.544;2023-07-29T05:49:57;65.74;39.51;75.49;;
18377;Laerm;9315;52.624;13.544;2023-07-29T05:52:31;66.93;39.67;81.55;;
18377;Laerm;9315;52.624;13.544;2023-07-29T05:54:58;63.42;39.74;77.65;;
18377;Laerm;9315;52.624;13.544;2023-07-29T05:57:28;65.28;39.39;76.05;;
18377;Laerm;9315;52.624;13.544;2023-07-29T05:59:55;66.20;37.72;81.14;;
18377;Laerm;9315;52.624;13.544;2023-07-29T06:02:23;67.35;39.53;81.79;;
18377;Laerm;9315;52.624;13.544;2023-07-29T06:04:50;64.13;40.26;75.72;;
18377;Laerm;9315;52.624;13.544;2023-07-29T06:07:18;65.68;42.84;77.18;;
18377;Laerm;9315;52.624;13.544;2023-07-29T06:09:46;65.26;39.65;77.01;;
18377;Laerm;9315;52.624;13.544;2023-07-29T06:12:13;65.00;42.43;76.17;;
18377;Laerm;9315;52.624;13.544;2023-07-29T06:14:41;67.69;42.91;80.48;;
18377;Laerm;9315;52.624;13.544;2023-07-29T06:17:08;66.24;40.24;75.27;;
18377;Laerm;9315;52.624;13.544;2023-07-29T06:19:38;64.75;38.71;75.73;;
18377;Laerm;9315;52.624;13.544;2023-07-29T06:22:06;64.53;41.04;75.47;;
18377;Laerm;9315;52.624;13.544;2023-07-29T06:24:33;66.94;42.47;80.47;;
18377;Laerm;9315;52.624;13.544;2023-07-29T06:27:01;65.96;42.03;76.09;;
18377;Laerm;9315;52.624;13.544;2023-07-29T06:29:28;65.03;41.59;74.40;;
18377;Laerm;9315;52.624;13.544;2023-07-29T06:31:56;65.11;41.91;74.59;;
18377;Laerm;9315;52.624;13.544;2023-07-29T06:34:23;65.73;37.58;79.47;;
18377;Laerm;9315;52.624;13.544;2023-07-29T06:36:55;65.20;38.52;75.99;;
18377;Laerm;9315;52.624;13.544;2023-07-29T06:39:23;67.31;45.60;77.25;;
18377;Laerm;9315;52.624;13.544;2023-07-29T06:41:50;65.41;43.57;76.17;;
18377;Laerm;9315;52.624;13.544;2023-07-29T06:44:19;66.21;41.77;76.75;;
18377;Laerm;9315;52.624;13.544;2023-07-29T06:46:46;69.10;47.97;83.14;;
18377;Laerm;9315;52.624;13.544;2023-07-29T06:49:14;66.22;39.97;77.42;;
18377;Laerm;9315;52.624;13.544;2023-07-29T06:51:41;67.13;40.41;83.06;;
18377;Laerm;9315;52.624;13.544;2023-07-29T06:54:13;65.68;39.87;76.49;;
18377;Laerm;9315;52.624;13.544;2023-07-29T06:56:41;65.26;42.79;78.51;;
18377;Laerm;9315;52.624;13.544;2023-07-29T06:59:13;66.54;47.72;76.98;;
18377;Laerm;9315;52.624;13.544;2023-07-29T07:01:51;66.39;40.10;77.49;;
18377;Laerm;9315;52.624;13.544;2023-07-29T07:04:19;64.30;38.89;78.33;;
18377;Laerm;9315;52.624;13.544;2023-07-29T07:06:46;67.37;40.82;78.26;;
18377;Laerm;9315;52.624;13.544;2023-07-29T07:09:13;67.71;42.31;78.15;;
18377;Laerm;9315;52.624;13.544;2023-07-29T07:11:40;66.59;40.56;75.77;;
18377;Laerm;9315;52.624;13.544;2023-07-29T07:14:08;66.07;40.26;77.60;;
18377;Laerm;9315;52.624;13.544;2023-07-29T07:16:35;65.97;39.39;75.82;;
18377;Laerm;9315;52.624;13.544;2023-07-29T07:19:06;65.58;42.55;75.25;;
18377;Laerm;9315;52.624;13.544;2023-07-29T07:21:34;69.08;44.91;77.04;;
18377;Laerm;9315;52.624;13.544;2023-07-29T07:24:02;66.25;42.23;78.98;;
18377;Laerm;9315;52.624;13.544;2023-07-29T07:26:29;66.62;43.01;76.72;;
18377;Laerm;9315;52.624;13.544;2023-07-29T07:28:56;68.46;44.56;80.85;;
18377;Laerm;9315;52.624;13.544;2023-07-29T07:31:24;67.73;42.14;77.35;;
18377;Laerm;9315;52.624;13.544;2023-07-29T07:33:52;69.12;42.96;86.69;;
18377;Laerm;9315;52.624;13.544;2023-07-29T07:36:19;67.11;48.31;75.48;;
18377;Laerm;9315;52.624;13.544;2023-07-29T07:38:47;67.43;43.55;80.50;;
18377;Laerm;9315;52.624;13.544;2023-07-29T07:41:15;67.64;44.22;80.25;;
18377;Laerm;9315;52.624;13.544;2023-07-29T07:43:45;68.55;43.74;78.84;;
18377;Laerm;9315;52.624;13.544;2023-07-29T07:46:13;68.05;43.85;75.53;;
18377;Laerm;9315;52.624;13.544;2023-07-29T07:48:40;66.95;41.66;75.20;;
18377;Laerm;9315;52.624;13.544;2023-07-29T07:51:12;66.21;43.67;75.49;;
18377;Laerm;9315;52.624;13.544;2023-07-29T07:53:42;69.65;45.32;77.92;;
18377;Laerm;9315;52.624;13.544;2023-07-29T07:56:09;67.62;42.15;77.00;;
18377;Laerm;9315;52.624;13.544;2023-07-29T07:58:37;68.52;45.22;81.73;;
18377;Laerm;9315;52.624;13.544;2023-07-29T08:01:09;67.16;43.86;76.17;;
18377;Laerm;9315;52.624;13.544;2023-07-29T08:03:39;69.09;42.40;76.61;;
18377;Laerm;9315;52.624;13.544;2023-07-29T08:06:07;69.45;42.76;78.55;;
18377;Laerm;9315;52.624;13.544;2023-07-29T08:08:37;67.65;43.35;76.93;;
18377;Laerm;9315;52.624;13.544;2023-07-29T08:11:10;66.86;42.69;77.75;;
18377;Laerm;9315;52.624;13.544;2023-07-29T08:13:38;69.25;46.99;81.21;;
18377;Laerm;9315;52.624;13.544;2023-07-29T08:16:05;68.49;38.17;77.36;;
18377;Laerm;9315;52.624;13.544;2023-07-29T08:18:34;66.51;42.53;75.65;;
18377;Laerm;9315;52.624;13.544;2023-07-29T08:21:02;68.67;42.05;76.23;;
18377;Laerm;9315;52.624;13.544;2023-07-29T08:23:33;67.69;47.43;75.82;;
18377;Laerm;9315;52.624;13.544;2023-07-29T08:26:06;68.74;45.72;76.15;;
18377;Laerm;9315;52.624;13.544;2023-07-29T08:28:39;67.96;45.65;76.70;;
18377;Laerm;9315;52.624;13.544;2023-07-29T08:31:07;67.85;44.61;76.39;;
18377;Laerm;9315;52.624;13.544;2023-07-29T08:33:35;68.96;50.99;77.74;;
18377;Laerm;9315;52.624;13.544;2023-07-29T08:36:09;68.00;44.90;76.95;;
18377;Laerm;9315;52.624;13.544;2023-07-29T08:38:42;67.70;42.55;78.42;;
18377;Laerm;9315;52.624;13.544;2023-07-29T08:41:31;68.22;47.65;78.19;;
18377;Laerm;9315;52.624;13.544;2023-07-29T08:44:15;67.90;45.65;76.82;;
18377;Laerm;9315;52.624;13.544;2023-07-29T08:46:45;68.45;49.45;78.00;;
18377;Laerm;9315;52.624;13.544;2023-07-29T08:49:13;66.62;47.99;74.01;;
18377;Laerm;9315;52.624;13.544;2023-07-29T08:51:48;68.64;46.08;80.07;;
18377;Laerm;9315;52.624;13.544;2023-07-29T08:54:19;67.79;47.97;75.06;;
18377;Laerm;9315;52.624;13.544;2023-07-29T08:56:50;68.60;43.64;83.97;;
18377;Laerm;9315;52.624;13.544;2023-07-29T08:59:18;67.02;43.30;76.09;;
18377;Laerm;9315;52.624;13.544;2023-07-29T09:01:57;68.85;49.11;76.00;;
18377;Laerm;9315;52.624;13.544;2023-07-29T09:04:25;68.13;43.59;77.02;;
18377;Laerm;9315;52.624;13.544;2023-07-29T09:06:54;68.17;43.92;75.16;;
18377;Laerm;9315;52.624;13.544;2023-07-29T09:09:23;68.55;44.33;80.89;;
18377;Laerm;9315;52.624;13.544;2023-07-29T09:11:50;69.01;52.92;78.24;;
18377;Laerm;9315;52.624;13.544;2023-07-29T09:14:18;69.35;48.26;76.69;;
18377;Laerm;9315;52.624;13.544;2023-07-29T09:16:46;67.53;45.87;75.93;;
18377;Laerm;9315;52.624;13.544;2023-07-29T09:19:19;67.20;42.58;75.56;;
18377;Laerm;9315;52.624;13.544;2023-07-29T09:21:53;69.05;49.72;78.12;;
18377;Laerm;9315;52.624;13.544;2023-07-29T09:24:24;68.49;47.19;82.46;;
18377;Laerm;9315;52.624;13.544;2023-07-29T09:27:09;66.64;43.50;77.49;;
18377;Laerm;9315;52.624;13.544;2023-07-29T09:29:40;69.57;41.55;77.32;;
18377;Laerm;9315;52.624;13.544;2023-07-29T09:32:25;68.38;49.38;75.89;;
18377;Laerm;9315;52.624;13.544;2023-07-29T09:34:53;68.59;45.79;75.51;;
18377;Laerm;9315;52.624;13.544;2023-07-29T09:37:22;68.33;46.14;75.89;;
18377;Laerm;9315;52.624;13.544;2023-07-29T09:39:52;69.64;54.10;78.24;;
18377;Laerm;9315;52.624;13.544;2023-07-29T09:42:21;69.10;45.60;78.80;;
18377;Laerm;9315;52.624;13.544;2023-07-29T09:44:50;68.66;44.10;76.16;;
18377;Laerm;9315;52.624;13.544;2023-07-29T09:47:26;67.13;44.96;76.56;;
18377;Laerm;9315;52.624;13.544;2023-07-29T09:49:53;68.44;44.77;77.99;;
18377;Laerm;9315;52.624;13.544;2023-07-29T09:52:23;67.96;41.03;75.44;;
18377;Laerm;9315;52.624;13.544;2023-07-29T09:54:51;69.61;48.04;93.30;;
18377;Laerm;9315;52.624;13.544;2023-07-29T09:57:19;68.97;49.45;80.02;;
18377;Laerm;9315;52.624;13.544;2023-07-29T09:59:55;68.88;44.51;77.22;;
18377;Laerm;9315;52.624;13.544;2023-07-29T10:02:24;69.09;50.04;77.61;;
18377;Laerm;9315;52.624;13.544;2023-07-29T10:05:01;68.26;45.15;77.85;;
18377;Laerm;9315;52.624;13.544;2023-07-29T10:07:49;69.48;46.66;76.59;;
18377;Laerm;9315;52.624;13.544;2023-07-29T10:10:18;68.78;50.39;76.92;;
18377;Laerm;9315;52.624;13.544;2023-07-29T10:12:47;68.38;46.80;75.29;;
18377;Laerm;9315;52.624;13.544;2023-07-29T10:15:24;68.25;47.04;76.35;;
18377;Laerm;9315;52.624;13.544;2023-07-29T10:17:53;68.76;53.63;77.64;;
18377;Laerm;9315;52.624;13.544;2023-07-29T10:20:21;68.88;48.64;79.48;;
18377;Laerm;9315;52.624;13.544;2023-07-29T10:22:48;69.09;44.16;77.91;;
18377;Laerm;9315;52.624;13.544;2023-07-29T10:25:31;68.70;46.68;78.08;;
18377;Laerm;9315;52.624;13.544;2023-07-29T10:28:08;70.16;48.92;77.13;;
18377;Laerm;9315;52.624;13.544;2023-07-29T10:30:38;69.56;50.88;81.94;;
18377;Laerm;9315;52.624;13.544;2023-07-29T10:33:06;69.05;54.36;76.19;;
18377;Laerm;9315;52.624;13.544;2023-07-29T10:35:34;69.86;45.91;85.06;;
18377;Laerm;9315;52.624;13.544;2023-07-29T10:38:03;69.83;53.24;78.08;;
18377;Laerm;9315;52.624;13.544;2023-07-29T10:40:55;70.40;54.49;81.38;;
18377;Laerm;9315;52.624;13.544;2023-07-29T10:43:35;68.81;48.97;79.43;;
18377;Laerm;9315;52.624;13.544;2023-07-29T10:46:34;68.52;45.39;77.15;;
18377;Laerm;9315;52.624;13.544;2023-07-29T10:49:03;68.87;48.89;77.36;;
18377;Laerm;9315;52.624;13.544;2023-07-29T10:51:36;68.90;50.26;78.17;;
18377;Laerm;9315;52.624;13.544;2023-07-29T10:54:12;68.68;52.34;77.10;;
18377;Laerm;9315;52.624;13.544;2023-07-29T10:56:46;68.79;48.20;75.57;;
18377;Laerm;9315;52.624;13.544;2023-07-29T11:01:58;69.60;48.91;80.23;;
18377;Laerm;9315;52.624;13.544;2023-07-29T11:04:29;67.52;51.10;74.48;;
18377;Laerm;9315;52.624;13.544;2023-07-29T11:09:56;69.71;49.47;77.48;;
18377;Laerm;9315;52.624;13.544;2023-07-29T11:12:51;69.04;47.79;81.95;;
18377;Laerm;9315;52.624;13.544;2023-07-29T11:15:28;69.17;46.58;77.69;;
18377;Laerm;9315;52.624;13.544;2023-07-29T11:18:01;69.78;45.89;79.67;;
18377;Laerm;9315;52.624;13.544;2023-07-29T11:20:32;67.77;45.70;76.31;;
18377;Laerm;9315;52.624;13.544;2023-07-29T11:23:03;68.76;52.26;76.98;;
18377;Laerm;9315;52.624;13.544;2023-07-29T11:25:31;70.08;54.77;89.83;;
18377;Laerm;9315;52.624;13.544;2023-07-29T11:28:03;70.44;49.72;90.19;;
18377;Laerm;9315;52.624;13.544;2023-07-29T11:30:39;68.21;48.08;78.89;;
18377;Laerm;9315;52.624;13.544;2023-07-29T11:33:06;69.47;48.89;77.17;;
18377;Laerm;9315;52.624;13.544;2023-07-29T11:35:34;77.59;61.68;90.64;;
18377;Laerm;9315;52.624;13.544;2023-07-29T11:38:04;80.34;58.27;89.25;;
18377;Laerm;9315;52.624;13.544;2023-07-29T11:40:41;79.45;58.11;87.42;;
18377;Laerm;9315;52.624;13.544;2023-07-29T11:43:28;77.79;53.03;90.19;;
18377;Laerm;9315;52.624;13.544;2023-07-29T11:46:20;77.16;50.22;87.13;;
18377;Laerm;9315;52.624;13.544;2023-07-29T11:49:58;74.16;45.94;84.48;;
18377;Laerm;9315;52.624;13.544;2023-07-29T11:53:38;75.62;49.76;85.15;;
18377;Laerm;9315;52.624;13.544;2023-07-29T11:56:38;75.68;44.97;83.36;;
18377;Laerm;9315;52.624;13.544;2023-07-29T11:59:21;75.48;51.35;84.72;;
18377;Laerm;9315;52.624;13.544;2023-07-29T12:02:01;76.14;55.15;83.61;;
18377;Laerm;9315;52.624;13.544;2023-07-29T12:05:30;73.91;46.90;81.83;;
18377;Laerm;9315;52.624;13.544;2023-07-29T12:07:58;88.64;56.35;107.64;;
18377;Laerm;9315;52.624;13.544;2023-07-29T12:10:43;74.44;46.21;81.13;;
18377;Laerm;9315;52.624;13.544;2023-07-29T12:13:37;74.74;49.00;82.89;;
18377;Laerm;9315;52.624;13.544;2023-07-29T12:16:48;74.73;42.78;82.88;;
18377;Laerm;9315;52.624;13.544;2023-07-29T12:19:33;73.23;45.65;81.19;;
18377;Laerm;9315;52.624;13.544;2023-07-29T12:22:10;72.25;47.53;81.93;;
18377;Laerm;9315;52.624;13.544;2023-07-29T12:24:40;71.83;38.48;79.88;;
18377;Laerm;9315;52.624;13.544;2023-07-29T12:27:16;72.51;42.17;80.05;;
18377;Laerm;9315;52.624;13.544;2023-07-29T12:29:44;71.88;48.06;80.40;;
18377;Laerm;9315;52.624;13.544;2023-07-29T12:32:14;71.99;45.04;82.60;;
18377;Laerm;9315;52.624;13.544;2023-07-29T12:34:52;72.20;53.75;79.09;;
18377;Laerm;9315;52.624;13.544;2023-07-29T12:37:33;70.50;42.53;78.30;;
18377;Laerm;9315;52.624;13.544;2023-07-29T12:40:00;71.64;47.31;77.96;;
18377;Laerm;9315;52.624;13.544;2023-07-29T12:42:30;71.83;50.76;80.81;;
18377;Laerm;9315;52.624;13.544;2023-07-29T12:45:03;71.38;45.23;78.10;;
18377;Laerm;9315;52.624;13.544;2023-07-29T12:47:32;71.22;45.03;79.28;;
18377;Laerm;9315;52.624;13.544;2023-07-29T12:49:59;71.87;42.50;78.55;;
18377;Laerm;9315;52.624;13.544;2023-07-29T12:52:26;71.30;41.67;80.96;;
18377;Laerm;9315;52.624;13.544;2023-07-29T12:54:54;69.13;42.50;78.94;;
18377;Laerm;9315;52.624;13.544;2023-07-29T12:57:21;69.26;47.74;76.89;;
18377;Laerm;9315;52.624;13.544;2023-07-29T12:59:48;71.82;47.14;78.09;;
18377;Laerm;9315;52.624;13.544;2023-07-29T13:02:16;70.91;43.32;77.65;;
18377;Laerm;9315;52.624;13.544;2023-07-29T13:04:43;69.91;42.99;78.59;;
18377;Laerm;9315;52.624;13.544;2023-07-29T13:07:19;69.44;44.50;78.99;;
18377;Laerm;9315;52.624;13.544;2023-07-29T13:09:47;70.02;40.16;79.44;;
18377;Laerm;9315;52.624;13.544;2023-07-29T13:12:14;69.91;48.22;78.91;;
18377;Laerm;9315;52.624;13.544;2023-07-29T13:14:52;68.29;40.51;77.47;;
18377;Laerm;9315;52.624;13.544;2023-07-29T13:17:27;68.52;39.47;79.73;;
18377;Laerm;9315;52.624;13.544;2023-07-29T13:19:54;71.09;50.81;79.18;;
18377;Laerm;9315;52.624;13.544;2023-07-29T13:22:21;69.61;42.05;77.11;;
18377;Laerm;9315;52.624;13.544;2023-07-29T13:24:52;68.79;41.78;77.08;;
18377;Laerm;9315;52.624;13.544;2023-07-29T13:27:19;67.48;47.19;76.30;;
18377;Laerm;9315;52.624;13.544;2023-07-29T13:29:47;71.71;49.77;88.99;;
18377;Laerm;9315;52.624;13.544;2023-07-29T13:32:14;69.64;45.23;78.93;;
18377;Laerm;9315;52.624;13.544;2023-07-29T13:34:47;69.06;44.81;77.71;;
18377;Laerm;9315;52.624;13.544;2023-07-29T13:37:14;68.59;46.77;77.86;;
18377;Laerm;9315;52.624;13.544;2023-07-29T13:39:45;69.34;43.12;83.10;;
18377;Laerm;9315;52.624;13.544;2023-07-29T13:42:22;70.12;43.61;81.46;;
18377;Laerm;9315;52.624;13.544;2023-07-29T13:44:50;68.47;46.50;76.35;;
18377;Laerm;9315;52.624;13.544;2023-07-29T13:47:19;67.10;43.60;77.13;;
18377;Laerm;9315;52.624;13.544;2023-07-29T13:49:47;70.04;47.76;76.86;;
18377;Laerm;9315;52.624;13.544;2023-07-29T13:52:17;69.13;43.54;75.89;;
18377;Laerm;9315;52.624;13.544;2023-07-29T13:54:45;67.89;43.83;77.29;;
18377;Laerm;9315;52.624;13.544;2023-07-29T13:57:12;69.48;48.04;79.64;;
18377;Laerm;9315;52.624;13.544;2023-07-29T13:59:45;68.75;44.52;78.70;;
18377;Laerm;9315;52.624;13.544;2023-07-29T14:02:13;68.91;50.06;76.84;;
18377;Laerm;9315;52.624;13.544;2023-07-29T14:04:41;66.25;42.05;77.37;;
18377;Laerm;9315;52.624;13.544;2023-07-29T14:07:15;69.97;44.37;79.09;;
18377;Laerm;9315;52.624;13.544;2023-07-29T14:09:47;69.52;42.20;78.30;;
18377;Laerm;9315;52.624;13.544;2023-07-29T14:12:16;69.38;43.15;80.66;;
18377;Laerm;9315;52.624;13.544;2023-07-29T14:15:05;67.21;37.95;77.77;;
18377;Laerm;9315;52.624;13.544;2023-07-29T14:21:06;66.79;41.34;76.98;;